Sioux Falls, SD

6:27 AM CST on March 03, 2015 (GMT -0600)
Madison Municipal | Change Station
CLOSE
Current Station
Airport
Location: Madison,
Elevation: 1716 ft
Nearby Weather Stations
Active Advisory: Winter Weather Advisory

Elev 1716 ft 44.01 °N, 97.08 °W | Updated 17 minutes ago

Snow
Snow
23 °F
Feels Like 17 °F
N
5
Wind Variable Wind from SW

Today
High -- | Low -- °F
--% Chance of Precip.
Yesterday
High -- | Low -- °F
Precip. -- in
7:00 AM 6:17 PM
Waxing Gibbous, 96% visible
Pressure 29.66 in
Visibility 2.0 miles
Clouds
Windchill 17 °F
Dew Point 23 °F
Humidity 100%
Rainfall 0.12 in
Snow Depth Not available.
UV Not available.
Pollen .40 out of 12
Air Quality Not available.
Flu Activity Not available.
METAR KMDS 031210Z AUTO 22004KT 2SM -SN M05/M05 A2966 RMK AO2 P0003

More Conditions Fewer Conditions

Pressure 29.66 in
Visibility 2.0 miles
Clouds
Windchill 17 °F
Dew Point 23 °F
Humidity 100%
Rainfall 0.12 in
Snow Depth Not available.
UV Not available.
Pollen .40 out of 12
Air Quality Not available.
Flu Activity Not available.
METAR KMDS 031210Z AUTO 22004KT 2SM -SN M05/M05 A2966 RMK AO2 P0003

More Conditions Fewer Conditions

10-Day Weather Forecast

Almanac

Astronomy

Mar. 03, 2015 Rise Set
Actual Time
Civil Twilight
Nautical Twilight
Astronomical Twilight
Moon
Length of Visible Light
Length of Day
Tomorrow will be .
, % of the Moon is Illuminated

Today's Extremes

State Highs State Lows

Community

WunderPhotos

Upload Photos

1,802,095 photos uploaded!

WunderBlogs® & News

Nearby

Air Quality

  Air Quality AQ Index Pollutant
Not available.

Snow Depth

Station Depth Elevation

Earthquake Activity

City Distance Mag. Time & Date
Minimum magnitude displayed is 2.5.

Coastal Water Temperatures

Place Temperature

Nearby Weather Stations

Winter Weather Advisory
Statement as of 4:07 AM CST on March 03, 2015

... Winter Weather Advisory remains in effect from 10 am this
morning to 5 PM CST this afternoon...

* timing... worst conditions from mid Tuesday morning through mid
afternoon Tuesday.

* Accumulations... 1 to 2 inches of snow is possible... with
highest amounts north of Highway 34.

* Wind and visibility... north to northwest winds of 30 to 40 mph
will be common... with some gusts around 45 mph possible in the
late morning and early afternoon. The combination of strong
winds and falling snow will occasionally reduce visibility to a
mile or less... especially in open areas. Drifting snow will also
impact travel through the afternoon.

* Wind chill values... wind chill values will fall to zero to 10
below zero by late afternoon.

Precautionary/preparedness actions...

A Winter Weather Advisory for snow and blowing snow means that
visibilities will be limited due to a combination of falling and
blowing snow. Use caution when traveling... especially in open
areas.